Terminal Aerodrome Forecast
Issued by NWS

Home | Current Version | Previous Version | Graphics & Text | Print | Product List | Glossary On
Versions: 1 2 3 4 5 6 7 8 9 10 11 12 13 14 15 16 17 18 19 20 21 22 23 24
000
FTUS43 KBIS 250300 AAC
TAFDIK
TAF AMD
KDIK 250328Z 2503/2524 13008KT P6SM SCT004 OVC050
      TEMPO 2503/2506 3SM -SN BR SCT004 OVC025
     FM250600 07011KT 3SM -SN BR OVC005
     FM251400 01016KT 2SM -SN BR OVC004
     FM251900 35015KT P6SM OVC020=

USA.gov is the U.S. government's official web portal to all federal, state and local government web resources and services.